Latest Coastal Weather Observations for Coconut Island

IDQ60701

Issued at 3:51 pm EST Saturday 20 December 2014 (issued every 10 minutes, with the page automatically refreshed every 10 minutes)

About coastal observations | Map of coastal stations | Coastal observations for QLD | Marine services | Other Formats
Station Details ID: 027054 Name: COCONUT ISLAND Lat: -10.05 Lon: 143.07 Height: 3.5 m
Data from the previous 72 hours. | See also: Recent months at Coconut Island
Date/Time
EST
Temp

°C
Wind Pressure Rain
since 9am
mm
Weather Cloud Vis
km
Sea
Height
m
Swell
Dir
 
Speed
knots
Gust
knots
hPa Trend Height
m
Period
s
Dir
20/03:30pm 32.2 ESE 2 4 1006.4 - 0.0 - - - - - - -
20/03:00pm 32.6 SE 2 5 1006.7 - 0.0 - - - - - - -
20/02:30pm 32.9 SE 2 4 1007.2 - 0.0 - - - - - - -
20/02:00pm 33.1 SE 3 7 1007.8 - 0.0 - - - - - - -
20/01:30pm 33.0 SE 3 7 1008.1 - 0.0 - - - - - - -
20/01:00pm 33.9 SE 2 5 1008.4 - 0.0 - - - - - - -
20/12:30pm 34.0 SE 2 6 1008.7 - 0.0 - - - - - - -
20/12:00pm 34.4 SSE 1 3 1009.1 - 0.0 - - - - - - -
20/11:30am 34.0 CALM 0 3 1009.2 - 0.0 - - - - - - -
20/11:00am 34.4 SE 1 2 1009.7 - 0.0 - - - - - - -
20/10:30am 33.7 SE 1 3 1009.7 - 0.0 - - - - - - -
20/10:00am 33.1 SE 1 3 1010.0 - 0.0 - - - - - - -
20/09:30am 32.4 SE 1 3 1010.3 - 0.0 - - - - - - -
20/09:00am 31.8 CALM 0 1 1010.4 - 0.0 - - - - - - -
20/08:30am 30.7 CALM 0 2 1010.4 - 0.0 - - - - - - -
20/08:00am 29.2 SE 1 3 1010.3 - 0.0 - - - - - - -
20/07:30am 27.8 ESE 1 3 1010.0 - 0.0 - - - - - - -
20/07:00am 26.0 CALM 0 0 1009.6 - 0.0 - - - - - - -
20/06:30am 25.1 CALM 0 0 1009.4 - 0.0 - - - - - - -
20/06:00am 24.8 CALM 0 0 1009.1 - 0.0 - - - - - - -
20/05:30am 25.1 CALM 0 0 1008.5 - 0.0 - - - - - - -
20/05:00am 24.8 E 1 2 1008.3 - 0.0 - - - - - - -
20/04:30am 24.8 CALM 0 0 1008.1 - 0.0 - - - - - - -
20/04:00am 25.0 CALM 0 0 1007.8 - 0.0 - - - - - - -
20/03:30am 25.3 CALM 0 1 1007.8 - 0.0 - - - - - - -
20/03:00am 25.6 CALM 0 2 1007.8 - 0.0 - - - - - - -
20/02:30am 25.7 CALM 0 2 1008.4 - 0.0 - - - - - - -
20/02:00am 26.1 CALM 0 1 1008.5 - 0.0 - - - - - - -
20/01:30am 25.9 E 2 3 1008.9 - 0.0 - - - - - - -
20/01:00am 26.2 E 2 3 1009.1 - 0.0 - - - - - - -
20/12:30am 26.6 E 3 4 1009.6 - 0.0 - - - - - - -
20/12:00am 26.8 E 3 5 1010.1 - 0.0 - - - - - - -
 
Date/Time
EST
Temp

°C
Wind Pressure Rain
since 9am
mm
Weather Cloud Vis
km
Sea
Height
m
Swell
Dir
 
Speed
knots
Gust
knots
hPa Trend Height
m
Period
s
Dir
19/11:30pm 26.8 E 3 5 1010.5 - 0.0 - - - - - - -
19/11:00pm 26.9 E 3 4 1010.5 - 0.0 - - - - - - -
19/10:30pm 27.0 E 3 5 1010.3 - 0.0 - - - - - - -
19/10:00pm 27.1 E 2 4 1010.3 - 0.0 - - - - - - -
19/09:30pm 27.4 E 2 4 1010.0 - 0.0 - - - - - - -
19/09:00pm 27.7 ESE 2 5 1009.6 - 0.0 - - - - - - -
19/08:30pm 27.8 ESE 2 5 1009.3 - 0.0 - - - - - - -
19/08:00pm 27.9 E 2 5 1009.0 - 0.0 - - - - - - -
19/07:30pm 28.2 ESE 2 4 1008.6 - 0.0 - - - - - - -
19/07:00pm 28.4 ESE 2 5 1008.5 - 0.0 - - - - - - -
19/06:30pm 29.1 E 3 6 1008.2 - 0.0 - - - - - - -
19/06:00pm 29.9 ENE 5 7 1008.0 - 0.0 - - - - - - -
19/05:30pm 30.7 ESE 2 5 1007.8 - 0.0 - - - - - - -
19/05:00pm 30.7 E 3 6 1007.7 - 0.0 - - - - - - -
19/04:30pm 31.1 E 5 7 1007.7 - 0.0 - - - - - - -
19/04:00pm 31.4 E 4 8 1007.9 - 0.0 - - - - - - -
19/03:30pm 32.0 ESE 2 6 1008.0 - 0.0 - - - - - - -
19/03:00pm 32.7 SE 2 6 1008.5 - 0.0 - - - - - - -
19/02:30pm 33.2 ESE 3 6 1008.7 - 0.0 - - - - - - -
19/02:00pm 33.6 SE 2 5 1009.2 - 0.0 - - - - - - -
19/01:30pm 33.3 ESE 4 8 1009.4 - 0.0 - - - - - - -
19/01:00pm 33.2 ESE 4 8 1009.6 - 0.0 - - - - - - -
19/12:30pm 34.0 SE 2 6 1009.8 - 0.0 - - - - - - -
19/12:00pm 32.5 SE 2 5 1010.1 - 0.0 - - - - - - -
19/11:30am 33.5 SE 3 7 1010.2 - 0.0 - - - - - - -
19/11:00am 33.1 ESE 3 5 1010.4 - 0.0 - - - - - - -
19/10:30am 32.5 ESE 3 5 1010.4 - 0.0 - - - - - - -
19/10:00am 31.8 ESE 3 6 1010.7 - 0.0 - - - - - - -
19/09:30am 31.7 ESE 4 6 1010.6 - 0.0 - - - - - - -
19/09:00am 31.6 SE 2 4 1010.9 - 0.0 - - - - - - -
19/08:30am 29.5 ESE 1 4 1010.8 - 0.0 - - - - - - -
19/08:00am 29.2 ESE 2 5 1010.6 - 0.0 - - - - - - -
19/07:30am 28.6 ESE 1 3 1010.7 - 0.0 - - - - - - -
19/07:00am 27.7 E 2 5 1010.4 - 0.0 - - - - - - -
19/06:30am 26.8 E 3 5 1010.1 - 0.0 - - - - - - -
19/06:00am 26.2 ESE 2 3 1009.8 - 0.0 - - - - - - -
19/05:30am 26.4 E 2 4 1009.5 - 0.0 - - - - - - -
19/05:00am 26.5 E 2 3 1009.4 - 0.0 - - - - - - -
19/04:30am 26.6 E 2 4 1009.4 - 0.0 - - - - - - -
19/04:00am 27.0 E 3 5 1009.3 - 0.0 - - - - - - -
19/03:30am 27.0 E 2 4 1009.3 - 0.0 - - - - - - -
19/03:00am 27.2 E 3 5 1009.4 - 0.0 - - - - - - -
19/02:30am 27.6 E 3 6 1009.5 - 0.0 - - - - - - -
19/02:00am 27.8 E 3 5 1009.2 - 0.0 - - - - - - -
19/01:30am 27.8 E 4 7 1009.4 - 0.0 - - - - - - -
19/01:00am 27.8 E 4 6 1009.4 - 0.0 - - - - - - -
19/12:30am 27.9 E 5 7 1009.6 - 0.0 - - - - - - -
19/12:00am 28.1 E 5 9 1009.9 - 0.0 - - - - - - -
 
Date/Time
EST
Temp

°C
Wind Pressure Rain
since 9am
mm
Weather Cloud Vis
km
Sea
Height
m
Swell
Dir
 
Speed
knots
Gust
knots
hPa Trend Height
m
Period
s
Dir
18/11:30pm 28.1 E 5 9 1009.7 - 0.0 - - - - - - -
18/11:00pm 28.2 E 4 7 1009.5 - 0.0 - - - - - - -
18/10:30pm 28.2 E 5 9 1009.1 - 0.0 - - - - - - -
18/10:00pm 28.4 E 4 7 1009.0 - 0.0 - - - - - - -
18/09:30pm 28.3 E 6 11 1008.9 - 0.0 - - - - - - -
18/09:00pm 28.4 E 5 9 1008.6 - 0.0 - - - - - - -
18/08:30pm 28.5 E 6 9 1008.3 - 0.0 - - - - - - -
18/08:00pm 28.6 E 6 9 1008.0 - 0.0 - - - - - - -
18/07:30pm 28.9 ENE 7 11 1007.8 - 0.0 - - - - - - -
18/07:00pm 28.9 E 5 9 1007.8 - 0.0 - - - - - - -
18/06:30pm 29.4 ESE 5 8 1007.9 - 0.0 - - - - - - -
18/06:00pm 30.0 E 3 7 1007.7 - 0.0 - - - - - - -
18/05:30pm 30.9 ESE 3 6 1007.6 - 0.0 - - - - - - -
18/05:00pm 31.5 ESE 3 6 1007.5 - 0.0 - - - - - - -
18/04:30pm 31.5 ESE 3 7 1007.5 - 0.0 - - - - - - -
18/04:00pm 32.0 ESE 2 6 1007.6 - 0.0 - - - - - - -
18/03:30pm 32.5 ESE 1 4 1008.0 - 0.0 - - - - - - -
18/03:00pm 33.2 SSE 2 5 1008.1 - 0.0 - - - - - - -
18/02:30pm 32.9 SE 2 4 1008.4 - 0.0 - - - - - - -
18/02:00pm 31.8 ENE 4 6 1008.7 - 0.0 - - - - - - -
18/01:30pm 32.7 E 1 3 1008.9 - 0.0 - - - - - - -
18/01:00pm 31.6 NE 2 3 1009.1 - 0.0 - - - - - - -
18/12:30pm 32.1 ENE 2 4 1009.4 - 0.0 - - - - - - -
18/12:00pm 32.4 NE 3 6 1009.7 - 0.0 - - - - - - -
18/11:30am 32.3 NE 2 5 1010.0 - 0.0 - - - - - - -
18/11:00am 32.6 ESE 2 4 1010.1 - 0.0 - - - - - - -
18/10:30am 32.9 ESE 3 5 1010.3 - 0.0 - - - - - - -
18/10:00am 32.7 ESE 2 5 1010.4 - 0.0 - - - - - - -
18/09:30am 33.0 SE 1 3 1010.6 - 0.0 - - - - - - -
18/09:00am 32.2 CALM 0 1 1010.8 - 0.0 - - - - - - -
18/08:30am 30.8 SE 1 3 1010.7 - 0.0 - - - - - - -
18/08:00am 29.6 ESE 2 4 1010.5 - 0.0 - - - - - - -
18/07:30am 28.8 E 3 5 1010.3 - 0.0 - - - - - - -
18/07:00am 27.7 E 1 3 1010.0 - 0.0 - - - - - - -
18/06:30am 26.7 E 2 3 1009.9 - 0.0 - - - - - - -
18/06:00am 26.3 E 2 3 1009.5 - 0.0 - - - - - - -
18/05:30am 26.3 E 1 2 1008.9 - 0.0 - - - - - - -
18/05:00am 26.3 CALM 0 1 1008.6 - 0.0 - - - - - - -
18/04:30am 26.4 CALM 0 2 1008.3 - 0.0 - - - - - - -
18/04:00am 26.5 ENE 1 2 1008.3 - 0.0 - - - - - - -
18/03:30am 26.5 CALM 0 0 1008.2 - 0.0 - - - - - - -
18/03:00am 26.8 ENE 1 3 1008.3 - 0.0 - - - - - - -
18/02:30am 27.1 NE 2 3 1008.3 - 0.0 - - - - - - -
18/02:00am 26.8 CALM 0 1 1008.1 - 0.0 - - - - - - -
18/01:30am 27.2 ENE 2 4 1007.9 - 0.0 - - - - - - -
18/01:00am 27.4 ENE 3 4 1008.0 - 0.0 - - - - - - -
18/12:30am 27.6 ENE 3 4 1008.0 - 0.0 - - - - - - -
18/12:00am 28.0 ENE 4 6 1008.4 - 0.0 - - - - - - -
 
Date/Time
EST
Temp

°C
Wind Pressure Rain
since 9am
mm
Weather Cloud Vis
km
Sea
Height
m
Swell
Dir
 
Speed
knots
Gust
knots
hPa Trend Height
m
Period
s
Dir
17/11:30pm 28.1 ENE 4 5 1008.7 - 0.0 - - - - - - -
17/11:00pm 28.3 ENE 4 6 1009.0 - 0.0 - - - - - - -
17/10:30pm 28.3 ENE 3 6 1009.0 - 0.0 - - - - - - -
17/10:00pm 28.3 ENE 3 5 1008.7 - 0.0 - - - - - - -
17/09:30pm 28.5 ESE 2 6 1008.4 - 0.0 - - - - - - -
17/09:00pm 28.5 ESE 2 6 1007.9 - 0.0 - - - - - - -
17/08:30pm 28.6 SE 1 4 1007.6 - 0.0 - - - - - - -
17/08:00pm 28.9 SSE 1 2 1007.2 - 0.0 - - - - - - -
17/07:30pm 29.1 SSE 1 3 1007.0 - 0.0 - - - - - - -
17/07:00pm 29.5 CALM 0 3 1006.7 - 0.0 - - - - - - -
17/06:30pm 30.1 CALM 0 0 1006.4 - 0.0 - - - - - - -
17/06:00pm 30.7 CALM 0 1 1006.2 - 0.0 - - - - - - -
17/05:30pm 31.0 CALM 0 2 1006.2 - 0.0 - - - - - - -
17/05:00pm 31.4 CALM 0 2 1005.9 - 0.0 - - - - - - -
17/04:30pm 32.2 CALM 0 2 1006.0 - 0.0 - - - - - - -
17/04:00pm 32.0 S 1 2 1006.1 - 0.0 - - - - - - -

Other Formats:

Comma delimited format used in spreadsheet applications
http://www.bom.gov.au/fwo/IDQ60701/IDQ60701.94182.axf

JavaScript Object Notation format (JSON) in row-major order
http://www.bom.gov.au/fwo/IDQ60701/IDQ60701.94182.json